sensor_id;sensor_type;location;lat;lon;timestamp;P1;durP1;ratioP1;P2;durP2;ratioP2
55035;SDS011;40936;53.008;6.556;2022-09-13T00:02:13;1999.90;;;999.90;;
55035;SDS011;40936;53.008;6.556;2022-09-13T00:04:39;1999.90;;;999.90;;
55035;SDS011;40936;53.008;6.556;2022-09-13T00:07:05;1999.90;;;999.90;;
55035;SDS011;40936;53.008;6.556;2022-09-13T00:09:30;1999.90;;;999.90;;
55035;SDS011;40936;53.008;6.556;2022-09-13T00:11:56;1999.90;;;999.90;;
55035;SDS011;40936;53.008;6.556;2022-09-13T00:14:22;1999.90;;;999.90;;
55035;SDS011;40936;53.008;6.556;2022-09-13T00:16:50;1999.90;;;999.90;;
55035;SDS011;40936;53.008;6.556;2022-09-13T00:19:16;1999.90;;;999.90;;
55035;SDS011;40936;53.008;6.556;2022-09-13T00:21:42;1999.90;;;999.90;;
55035;SDS011;40936;53.008;6.556;2022-09-13T00:24:07;1999.90;;;999.90;;
55035;SDS011;40936;53.008;6.556;2022-09-13T00:26:33;1999.90;;;999.90;;
55035;SDS011;40936;53.008;6.556;2022-09-13T00:28:59;1999.90;;;999.90;;
55035;SDS011;40936;53.008;6.556;2022-09-13T00:31:26;1999.90;;;999.90;;
55035;SDS011;40936;53.008;6.556;2022-09-13T00:33:52;1999.90;;;999.90;;
55035;SDS011;40936;53.008;6.556;2022-09-13T00:36:18;1999.90;;;999.90;;
55035;SDS011;40936;53.008;6.556;2022-09-13T00:38:44;1999.90;;;999.90;;
55035;SDS011;40936;53.008;6.556;2022-09-13T00:41:12;1999.90;;;999.90;;
55035;SDS011;40936;53.008;6.556;2022-09-13T00:43:41;1999.90;;;999.90;;
55035;SDS011;40936;53.008;6.556;2022-09-13T00:46:10;1999.90;;;999.90;;
55035;SDS011;40936;53.008;6.556;2022-09-13T00:48:38;1999.90;;;999.90;;
55035;SDS011;40936;53.008;6.556;2022-09-13T00:51:04;1999.90;;;999.90;;
55035;SDS011;40936;53.008;6.556;2022-09-13T00:53:32;1999.90;;;999.90;;
55035;SDS011;40936;53.008;6.556;2022-09-13T00:56:07;1999.90;;;999.90;;
55035;SDS011;40936;53.008;6.556;2022-09-13T00:58:45;1999.90;;;999.90;;
55035;SDS011;40936;53.008;6.556;2022-09-13T01:01:17;1999.90;;;999.90;;
55035;SDS011;40936;53.008;6.556;2022-09-13T01:03:47;1999.90;;;999.90;;
55035;SDS011;40936;53.008;6.556;2022-09-13T01:06:22;1999.90;;;999.90;;
55035;SDS011;40936;53.008;6.556;2022-09-13T01:08:53;1999.90;;;999.90;;
55035;SDS011;40936;53.008;6.556;2022-09-13T01:11:26;1999.90;;;999.90;;
55035;SDS011;40936;53.008;6.556;2022-09-13T01:13:57;1999.90;;;999.90;;
55035;SDS011;40936;53.008;6.556;2022-09-13T01:16:24;1999.90;;;999.90;;
55035;SDS011;40936;53.008;6.556;2022-09-13T01:18:50;1999.90;;;999.90;;
55035;SDS011;40936;53.008;6.556;2022-09-13T01:34:44;1999.90;;;999.90;;
55035;SDS011;40936;53.008;6.556;2022-09-13T01:54:31;1999.90;;;999.90;;
55035;SDS011;40936;53.008;6.556;2022-09-13T01:57:08;1999.90;;;999.90;;
55035;SDS011;40936;53.008;6.556;2022-09-13T02:07:54;1999.90;;;999.90;;
55035;SDS011;40936;53.008;6.556;2022-09-13T02:11:07;1999.90;;;999.90;;
55035;SDS011;40936;53.008;6.556;2022-09-13T02:13:20;1999.90;;;999.90;;
55035;SDS011;40936;53.008;6.556;2022-09-13T02:15:52;1999.90;;;999.90;;
55035;SDS011;40936;53.008;6.556;2022-09-13T02:18:29;1999.90;;;999.90;;
55035;SDS011;40936;53.008;6.556;2022-09-13T02:21:00;1999.90;;;999.90;;
55035;SDS011;40936;53.008;6.556;2022-09-13T02:23:33;1999.90;;;999.90;;
55035;SDS011;40936;53.008;6.556;2022-09-13T02:26:07;1999.90;;;999.90;;
55035;SDS011;40936;53.008;6.556;2022-09-13T02:28:39;1999.90;;;999.90;;
55035;SDS011;40936;53.008;6.556;2022-09-13T02:31:09;1999.90;;;999.90;;
55035;SDS011;40936;53.008;6.556;2022-09-13T02:33:48;1999.90;;;999.90;;
55035;SDS011;40936;53.008;6.556;2022-09-13T02:36:21;1999.90;;;999.90;;
55035;SDS011;40936;53.008;6.556;2022-09-13T02:38:52;1999.90;;;999.90;;
55035;SDS011;40936;53.008;6.556;2022-09-13T02:41:29;1999.90;;;999.90;;
55035;SDS011;40936;53.008;6.556;2022-09-13T02:44:04;1999.90;;;999.90;;
55035;SDS011;40936;53.008;6.556;2022-09-13T02:54:38;1999.90;;;999.90;;
55035;SDS011;40936;53.008;6.556;2022-09-13T02:57:25;1999.90;;;999.90;;
55035;SDS011;40936;53.008;6.556;2022-09-13T03:00:05;1999.90;;;999.90;;
55035;SDS011;40936;53.008;6.556;2022-09-13T03:02:31;1999.90;;;999.90;;
55035;SDS011;40936;53.008;6.556;2022-09-13T03:05:01;1999.90;;;999.90;;
55035;SDS011;40936;53.008;6.556;2022-09-13T03:07:27;1999.90;;;999.90;;
55035;SDS011;40936;53.008;6.556;2022-09-13T03:09:55;1999.90;;;999.90;;
55035;SDS011;40936;53.008;6.556;2022-09-13T03:12:31;1999.90;;;999.90;;
55035;SDS011;40936;53.008;6.556;2022-09-13T03:20:48;1999.90;;;999.90;;
55035;SDS011;40936;53.008;6.556;2022-09-13T03:40:19;1999.90;;;999.90;;
55035;SDS011;40936;53.008;6.556;2022-09-13T03:43:04;1999.90;;;999.90;;
55035;SDS011;40936;53.008;6.556;2022-09-13T03:45:36;1999.90;;;999.90;;
55035;SDS011;40936;53.008;6.556;2022-09-13T03:48:09;1999.90;;;999.90;;
55035;SDS011;40936;53.008;6.556;2022-09-13T03:50:36;1999.90;;;999.90;;
55035;SDS011;40936;53.008;6.556;2022-09-13T03:53:05;1999.90;;;999.90;;
55035;SDS011;40936;53.008;6.556;2022-09-13T03:55:37;1999.90;;;999.90;;
55035;SDS011;40936;53.008;6.556;2022-09-13T03:58:05;1999.90;;;999.90;;
55035;SDS011;40936;53.008;6.556;2022-09-13T04:00:33;1999.90;;;999.90;;
55035;SDS011;40936;53.008;6.556;2022-09-13T04:02:58;1999.90;;;999.90;;
55035;SDS011;40936;53.008;6.556;2022-09-13T04:05:24;1999.90;;;999.90;;
55035;SDS011;40936;53.008;6.556;2022-09-13T04:07:50;1999.90;;;999.90;;
55035;SDS011;40936;53.008;6.556;2022-09-13T04:10:15;1999.90;;;999.90;;
55035;SDS011;40936;53.008;6.556;2022-09-13T04:12:41;1999.90;;;999.90;;
55035;SDS011;40936;53.008;6.556;2022-09-13T04:15:07;1999.90;;;999.90;;
55035;SDS011;40936;53.008;6.556;2022-09-13T04:17:34;1999.90;;;999.90;;
55035;SDS011;40936;53.008;6.556;2022-09-13T04:20:00;1999.90;;;999.90;;
55035;SDS011;40936;53.008;6.556;2022-09-13T04:22:26;1999.90;;;999.90;;
55035;SDS011;40936;53.008;6.556;2022-09-13T04:24:51;1999.90;;;999.90;;
55035;SDS011;40936;53.008;6.556;2022-09-13T04:27:17;1999.90;;;999.90;;
55035;SDS011;40936;53.008;6.556;2022-09-13T04:29:43;1999.90;;;999.90;;
55035;SDS011;40936;53.008;6.556;2022-09-13T04:32:08;1999.90;;;999.90;;
55035;SDS011;40936;53.008;6.556;2022-09-13T04:34:35;1999.90;;;999.90;;
55035;SDS011;40936;53.008;6.556;2022-09-13T04:37:01;1999.90;;;999.90;;
55035;SDS011;40936;53.008;6.556;2022-09-13T04:39:26;1999.90;;;999.90;;
55035;SDS011;40936;53.008;6.556;2022-09-13T04:41:52;1999.90;;;999.90;;
55035;SDS011;40936;53.008;6.556;2022-09-13T04:44:19;1999.90;;;999.90;;
55035;SDS011;40936;53.008;6.556;2022-09-13T04:46:46;1999.90;;;999.90;;
55035;SDS011;40936;53.008;6.556;2022-09-13T04:49:16;1999.90;;;999.90;;
55035;SDS011;40936;53.008;6.556;2022-09-13T04:51:42;1999.90;;;999.90;;
55035;SDS011;40936;53.008;6.556;2022-09-13T04:54:08;1999.90;;;999.90;;
55035;SDS011;40936;53.008;6.556;2022-09-13T04:56:35;1999.90;;;999.90;;
55035;SDS011;40936;53.008;6.556;2022-09-13T04:59:01;1999.90;;;999.90;;
55035;SDS011;40936;53.008;6.556;2022-09-13T05:01:26;1999.90;;;999.90;;
55035;SDS011;40936;53.008;6.556;2022-09-13T05:03:54;1999.90;;;999.90;;
55035;SDS011;40936;53.008;6.556;2022-09-13T05:06:20;1999.90;;;999.90;;
55035;SDS011;40936;53.008;6.556;2022-09-13T05:08:51;1999.90;;;999.90;;
55035;SDS011;40936;53.008;6.556;2022-09-13T05:11:19;1999.90;;;999.90;;
55035;SDS011;40936;53.008;6.556;2022-09-13T05:13:53;1999.90;;;999.90;;
55035;SDS011;40936;53.008;6.556;2022-09-13T05:16:21;1999.90;;;999.90;;
55035;SDS011;40936;53.008;6.556;2022-09-13T05:18:51;1999.90;;;999.90;;
55035;SDS011;40936;53.008;6.556;2022-09-13T05:21:17;1999.90;;;999.90;;
55035;SDS011;40936;53.008;6.556;2022-09-13T05:23:44;1999.90;;;999.90;;
55035;SDS011;40936;53.008;6.556;2022-09-13T05:26:12;1999.90;;;999.90;;
55035;SDS011;40936;53.008;6.556;2022-09-13T05:28:38;1999.90;;;999.90;;
55035;SDS011;40936;53.008;6.556;2022-09-13T05:33:32;1999.90;;;999.90;;
55035;SDS011;40936;53.008;6.556;2022-09-13T05:36:03;1999.90;;;999.90;;
55035;SDS011;40936;53.008;6.556;2022-09-13T05:38:29;1999.90;;;999.90;;
55035;SDS011;40936;53.008;6.556;2022-09-13T05:41:02;1999.90;;;999.90;;
55035;SDS011;40936;53.008;6.556;2022-09-13T05:43:30;1999.90;;;999.90;;
55035;SDS011;40936;53.008;6.556;2022-09-13T05:48:34;1999.90;;;999.90;;
55035;SDS011;40936;53.008;6.556;2022-09-13T05:51:04;1999.90;;;999.90;;
55035;SDS011;40936;53.008;6.556;2022-09-13T05:53:32;1999.90;;;999.90;;
55035;SDS011;40936;53.008;6.556;2022-09-13T05:55:58;1999.90;;;999.90;;
55035;SDS011;40936;53.008;6.556;2022-09-13T05:58:24;1999.90;;;999.90;;
55035;SDS011;40936;53.008;6.556;2022-09-13T06:00:53;1999.90;;;999.90;;
55035;SDS011;40936;53.008;6.556;2022-09-13T06:03:21;1999.90;;;999.90;;
55035;SDS011;40936;53.008;6.556;2022-09-13T06:05:47;1999.90;;;999.90;;
55035;SDS011;40936;53.008;6.556;2022-09-13T06:08:12;1999.90;;;999.90;;
55035;SDS011;40936;53.008;6.556;2022-09-13T06:10:38;1999.90;;;999.90;;
55035;SDS011;40936;53.008;6.556;2022-09-13T06:13:04;1999.90;;;999.90;;
55035;SDS011;40936;53.008;6.556;2022-09-13T06:15:30;1999.90;;;999.90;;
55035;SDS011;40936;53.008;6.556;2022-09-13T06:17:56;1999.90;;;999.90;;
55035;SDS011;40936;53.008;6.556;2022-09-13T06:20:21;1999.90;;;999.90;;
55035;SDS011;40936;53.008;6.556;2022-09-13T06:22:47;1999.90;;;999.90;;
55035;SDS011;40936;53.008;6.556;2022-09-13T06:25:13;1999.90;;;999.90;;
55035;SDS011;40936;53.008;6.556;2022-09-13T06:27:40;1999.90;;;999.90;;
55035;SDS011;40936;53.008;6.556;2022-09-13T06:30:06;1999.90;;;999.90;;
55035;SDS011;40936;53.008;6.556;2022-09-13T06:32:33;1999.90;;;999.90;;
55035;SDS011;40936;53.008;6.556;2022-09-13T06:34:59;1999.90;;;999.90;;
55035;SDS011;40936;53.008;6.556;2022-09-13T06:37:25;1999.90;;;999.90;;
55035;SDS011;40936;53.008;6.556;2022-09-13T06:39:51;1999.90;;;999.90;;
55035;SDS011;40936;53.008;6.556;2022-09-13T06:42:16;1999.90;;;999.90;;
55035;SDS011;40936;53.008;6.556;2022-09-13T06:44:42;1999.90;;;999.90;;
55035;SDS011;40936;53.008;6.556;2022-09-13T06:47:10;1999.90;;;999.90;;
55035;SDS011;40936;53.008;6.556;2022-09-13T06:49:36;1999.90;;;999.90;;
55035;SDS011;40936;53.008;6.556;2022-09-13T06:52:03;1999.90;;;999.90;;
55035;SDS011;40936;53.008;6.556;2022-09-13T06:54:29;1999.90;;;999.90;;
55035;SDS011;40936;53.008;6.556;2022-09-13T06:56:54;1999.90;;;999.90;;
55035;SDS011;40936;53.008;6.556;2022-09-13T06:59:20;1999.90;;;999.90;;
55035;SDS011;40936;53.008;6.556;2022-09-13T07:01:46;1999.90;;;999.90;;
55035;SDS011;40936;53.008;6.556;2022-09-13T07:04:13;1999.90;;;999.90;;
55035;SDS011;40936;53.008;6.556;2022-09-13T07:06:41;1999.90;;;999.90;;
55035;SDS011;40936;53.008;6.556;2022-09-13T07:09:12;1999.90;;;999.90;;
55035;SDS011;40936;53.008;6.556;2022-09-13T07:11:42;1999.90;;;999.90;;
55035;SDS011;40936;53.008;6.556;2022-09-13T07:14:13;1999.90;;;999.90;;
55035;SDS011;40936;53.008;6.556;2022-09-13T07:16:40;1999.90;;;999.90;;
55035;SDS011;40936;53.008;6.556;2022-09-13T07:19:06;1999.90;;;999.90;;
55035;SDS011;40936;53.008;6.556;2022-09-13T07:21:37;1999.90;;;999.90;;
55035;SDS011;40936;53.008;6.556;2022-09-13T07:24:03;1999.90;;;999.90;;
55035;SDS011;40936;53.008;6.556;2022-09-13T07:26:29;1999.90;;;999.90;;
55035;SDS011;40936;53.008;6.556;2022-09-13T07:28:56;1999.90;;;999.90;;
55035;SDS011;40936;53.008;6.556;2022-09-13T07:31:25;1999.90;;;999.90;;
55035;SDS011;40936;53.008;6.556;2022-09-13T07:34:02;1999.90;;;999.90;;
55035;SDS011;40936;53.008;6.556;2022-09-13T07:36:31;1999.90;;;999.90;;
55035;SDS011;40936;53.008;6.556;2022-09-13T07:38:58;1999.90;;;999.90;;
55035;SDS011;40936;53.008;6.556;2022-09-13T07:41:25;1999.90;;;999.90;;
55035;SDS011;40936;53.008;6.556;2022-09-13T07:43:52;1999.90;;;999.90;;
55035;SDS011;40936;53.008;6.556;2022-09-13T07:46:19;1999.90;;;999.90;;
55035;SDS011;40936;53.008;6.556;2022-09-13T07:48:46;1999.90;;;999.90;;
55035;SDS011;40936;53.008;6.556;2022-09-13T07:53:39;1999.90;;;999.90;;
55035;SDS011;40936;53.008;6.556;2022-09-13T07:56:07;1999.90;;;999.90;;
55035;SDS011;40936;53.008;6.556;2022-09-13T07:58:35;1999.90;;;999.90;;
55035;SDS011;40936;53.008;6.556;2022-09-13T08:01:07;1999.90;;;999.90;;
55035;SDS011;40936;53.008;6.556;2022-09-13T08:03:53;1999.90;;;999.90;;
55035;SDS011;40936;53.008;6.556;2022-09-13T08:06:24;1999.90;;;910.55;;
55035;SDS011;40936;53.008;6.556;2022-09-13T08:08:51;1999.90;;;999.90;;
55035;SDS011;40936;53.008;6.556;2022-09-13T08:11:18;1999.90;;;822.28;;
55035;SDS011;40936;53.008;6.556;2022-09-13T08:13:46;1241.00;;;340.17;;
55035;SDS011;40936;53.008;6.556;2022-09-13T08:16:12;1999.90;;;949.70;;
55035;SDS011;40936;53.008;6.556;2022-09-13T08:18:42;1999.90;;;999.90;;
55035;SDS011;40936;53.008;6.556;2022-09-13T08:21:12;1999.90;;;999.90;;
55035;SDS011;40936;53.008;6.556;2022-09-13T08:23:39;1999.90;;;999.90;;
55035;SDS011;40936;53.008;6.556;2022-09-13T08:26:05;1999.90;;;999.90;;
55035;SDS011;40936;53.008;6.556;2022-09-13T08:28:32;1999.90;;;999.90;;
55035;SDS011;40936;53.008;6.556;2022-09-13T08:31:03;1999.90;;;999.90;;
55035;SDS011;40936;53.008;6.556;2022-09-13T08:33:36;1999.90;;;999.90;;
55035;SDS011;40936;53.008;6.556;2022-09-13T08:36:03;1999.90;;;999.90;;
55035;SDS011;40936;53.008;6.556;2022-09-13T08:38:29;1999.90;;;999.90;;
55035;SDS011;40936;53.008;6.556;2022-09-13T08:40:57;1999.90;;;999.90;;
55035;SDS011;40936;53.008;6.556;2022-09-13T08:46:00;1999.90;;;999.90;;
55035;SDS011;40936;53.008;6.556;2022-09-13T08:48:32;1999.90;;;999.90;;
55035;SDS011;40936;53.008;6.556;2022-09-13T08:51:02;1999.90;;;999.90;;
55035;SDS011;40936;53.008;6.556;2022-09-13T08:53:32;1999.90;;;999.90;;
55035;SDS011;40936;53.008;6.556;2022-09-13T08:56:19;1999.90;;;999.90;;
55035;SDS011;40936;53.008;6.556;2022-09-13T08:58:56;1999.90;;;999.90;;
55035;SDS011;40936;53.008;6.556;2022-09-13T09:04:49;1999.90;;;999.90;;
55035;SDS011;40936;53.008;6.556;2022-09-13T09:07:25;1999.90;;;972.78;;
55035;SDS011;40936;53.008;6.556;2022-09-13T09:15:42;1999.90;;;999.90;;
55035;SDS011;40936;53.008;6.556;2022-09-13T09:18:22;1999.90;;;980.72;;
55035;SDS011;40936;53.008;6.556;2022-09-13T09:20:54;1999.90;;;999.90;;
55035;SDS011;40936;53.008;6.556;2022-09-13T09:23:26;1999.90;;;999.90;;
55035;SDS011;40936;53.008;6.556;2022-09-13T09:26:11;1999.90;;;999.90;;
55035;SDS011;40936;53.008;6.556;2022-09-13T09:28:37;1999.90;;;999.90;;
55035;SDS011;40936;53.008;6.556;2022-09-13T09:31:06;1999.90;;;814.90;;
55035;SDS011;40936;53.008;6.556;2022-09-13T09:36:22;1999.90;;;999.90;;
55035;SDS011;40936;53.008;6.556;2022-09-13T09:39:02;1999.90;;;849.55;;
55035;SDS011;40936;53.008;6.556;2022-09-13T09:41:33;1999.90;;;999.90;;
55035;SDS011;40936;53.008;6.556;2022-09-13T09:46:31;844.88;;;765.72;;
55035;SDS011;40936;53.008;6.556;2022-09-13T09:52:16;580.25;;;527.97;;
55035;SDS011;40936;53.008;6.556;2022-09-13T09:54:47;1999.90;;;999.90;;
55035;SDS011;40936;53.008;6.556;2022-09-13T09:57:14;612.28;;;567.78;;
55035;SDS011;40936;53.008;6.556;2022-09-13T09:59:40;699.97;;;647.15;;
55035;SDS011;40936;53.008;6.556;2022-09-13T10:02:16;590.22;;;550.80;;
55035;SDS011;40936;53.008;6.556;2022-09-13T10:04:55;597.70;;;555.17;;
55035;SDS011;40936;53.008;6.556;2022-09-13T10:10:04;925.22;;;832.90;;
55035;SDS011;40936;53.008;6.556;2022-09-13T10:12:33;625.95;;;584.20;;
55035;SDS011;40936;53.008;6.556;2022-09-13T10:15:04;1069.88;;;921.38;;
55035;SDS011;40936;53.008;6.556;2022-09-13T10:17:36;938.20;;;860.83;;
55035;SDS011;40936;53.008;6.556;2022-09-13T10:25:22;1884.63;;;999.90;;
55035;SDS011;40936;53.008;6.556;2022-09-13T10:27:53;1129.75;;;964.17;;
55035;SDS011;40936;53.008;6.556;2022-09-13T10:33:27;1037.68;;;918.90;;
55035;SDS011;40936;53.008;6.556;2022-09-13T10:36:23;1999.90;;;999.90;;
55035;SDS011;40936;53.008;6.556;2022-09-13T10:38:58;1471.68;;;999.90;;
55035;SDS011;40936;53.008;6.556;2022-09-13T10:41:25;1999.90;;;999.90;;
55035;SDS011;40936;53.008;6.556;2022-09-13T10:43:56;1999.90;;;999.90;;
55035;SDS011;40936;53.008;6.556;2022-09-13T10:46:24;1999.90;;;999.90;;
55035;SDS011;40936;53.008;6.556;2022-09-13T10:48:53;1999.90;;;999.90;;
55035;SDS011;40936;53.008;6.556;2022-09-13T10:53:50;1999.90;;;999.90;;
55035;SDS011;40936;53.008;6.556;2022-09-13T10:56:31;1999.90;;;960.15;;
55035;SDS011;40936;53.008;6.556;2022-09-13T11:01:58;1999.90;;;999.90;;
55035;SDS011;40936;53.008;6.556;2022-09-13T11:10:01;1999.90;;;999.90;;
55035;SDS011;40936;53.008;6.556;2022-09-13T11:12:54;1999.90;;;999.90;;
55035;SDS011;40936;53.008;6.556;2022-09-13T11:15:45;1999.90;;;999.90;;
55035;SDS011;40936;53.008;6.556;2022-09-13T11:18:27;1999.90;;;999.90;;
55035;SDS011;40936;53.008;6.556;2022-09-13T11:23:47;1999.90;;;999.90;;
55035;SDS011;40936;53.008;6.556;2022-09-13T11:28:58;1999.90;;;999.90;;
55035;SDS011;40936;53.008;6.556;2022-09-13T11:39:37;1999.90;;;999.90;;
55035;SDS011;40936;53.008;6.556;2022-09-13T11:45:17;1999.90;;;999.90;;
55035;SDS011;40936;53.008;6.556;2022-09-13T11:51:03;1999.90;;;999.90;;
55035;SDS011;40936;53.008;6.556;2022-09-13T11:56:44;1999.90;;;999.90;;
55035;SDS011;40936;53.008;6.556;2022-09-13T11:59:27;1999.90;;;999.90;;
55035;SDS011;40936;53.008;6.556;2022-09-13T12:05:02;1428.97;;;999.90;;
55035;SDS011;40936;53.008;6.556;2022-09-13T12:07:36;1729.38;;;999.90;;
55035;SDS011;40936;53.008;6.556;2022-09-13T12:10:14;1999.90;;;998.53;;
55035;SDS011;40936;53.008;6.556;2022-09-13T12:12:49;1999.90;;;999.90;;
55035;SDS011;40936;53.008;6.556;2022-09-13T12:15:22;1999.90;;;999.90;;
55035;SDS011;40936;53.008;6.556;2022-09-13T12:18:17;1999.90;;;999.90;;
55035;SDS011;40936;53.008;6.556;2022-09-13T12:21:03;1386.07;;;999.90;;
55035;SDS011;40936;53.008;6.556;2022-09-13T12:23:59;1410.35;;;999.90;;
55035;SDS011;40936;53.008;6.556;2022-09-13T12:31:44;1201.50;;;893.42;;
55035;SDS011;40936;53.008;6.556;2022-09-13T12:34:14;1419.82;;;945.80;;
55035;SDS011;40936;53.008;6.556;2022-09-13T12:43:06;581.65;;;539.58;;
55035;SDS011;40936;53.008;6.556;2022-09-13T12:45:59;1038.30;;;829.92;;
55035;SDS011;40936;53.008;6.556;2022-09-13T13:01:52;1999.90;;;873.03;;
55035;SDS011;40936;53.008;6.556;2022-09-13T13:04:20;1999.90;;;831.97;;
55035;SDS011;40936;53.008;6.556;2022-09-13T13:06:53;1981.22;;;999.90;;
55035;SDS011;40936;53.008;6.556;2022-09-13T13:14:59;1737.35;;;961.55;;
55035;SDS011;40936;53.008;6.556;2022-09-13T13:17:45;1999.90;;;999.90;;
55035;SDS011;40936;53.008;6.556;2022-09-13T13:25:59;1574.10;;;999.90;;
55035;SDS011;40936;53.008;6.556;2022-09-13T13:34:01;1999.90;;;999.90;;
55035;SDS011;40936;53.008;6.556;2022-09-13T13:39:09;1999.90;;;999.90;;
55035;SDS011;40936;53.008;6.556;2022-09-13T13:41:45;1999.90;;;999.90;;
55035;SDS011;40936;53.008;6.556;2022-09-13T13:55:00;1999.90;;;742.35;;
55035;SDS011;40936;53.008;6.556;2022-09-13T14:00:34;1999.90;;;999.90;;
55035;SDS011;40936;53.008;6.556;2022-09-13T14:03:21;1999.90;;;999.90;;
55035;SDS011;40936;53.008;6.556;2022-09-13T14:06:15;1999.90;;;999.90;;
55035;SDS011;40936;53.008;6.556;2022-09-13T14:08:56;1999.90;;;999.90;;
55035;SDS011;40936;53.008;6.556;2022-09-13T14:19:59;1999.90;;;999.90;;
55035;SDS011;40936;53.008;6.556;2022-09-13T14:22:45;1999.90;;;999.90;;
55035;SDS011;40936;53.008;6.556;2022-09-13T14:25:21;1999.90;;;999.90;;
55035;SDS011;40936;53.008;6.556;2022-09-13T14:27:49;1999.90;;;999.90;;
55035;SDS011;40936;53.008;6.556;2022-09-13T14:30:21;1999.90;;;999.90;;
55035;SDS011;40936;53.008;6.556;2022-09-13T14:32:51;1999.90;;;999.90;;
55035;SDS011;40936;53.008;6.556;2022-09-13T14:35:24;1999.90;;;999.90;;
55035;SDS011;40936;53.008;6.556;2022-09-13T14:37:50;1999.90;;;999.90;;
55035;SDS011;40936;53.008;6.556;2022-09-13T14:40:17;1999.90;;;999.90;;
55035;SDS011;40936;53.008;6.556;2022-09-13T14:42:51;1999.90;;;999.90;;
55035;SDS011;40936;53.008;6.556;2022-09-13T14:47:54;1999.90;;;999.90;;
55035;SDS011;40936;53.008;6.556;2022-09-13T14:50:41;1999.90;;;999.90;;
55035;SDS011;40936;53.008;6.556;2022-09-13T14:53:24;1999.90;;;999.90;;
55035;SDS011;40936;53.008;6.556;2022-09-13T14:55:54;1999.90;;;999.90;;
55035;SDS011;40936;53.008;6.556;2022-09-13T14:58:25;1999.90;;;999.90;;
55035;SDS011;40936;53.008;6.556;2022-09-13T15:01:16;1999.90;;;999.90;;
55035;SDS011;40936;53.008;6.556;2022-09-13T15:03:46;1999.90;;;999.90;;
55035;SDS011;40936;53.008;6.556;2022-09-13T15:06:46;1999.90;;;999.90;;
55035;SDS011;40936;53.008;6.556;2022-09-13T15:11:36;1999.90;;;999.90;;
55035;SDS011;40936;53.008;6.556;2022-09-13T15:17:10;1999.90;;;999.90;;
55035;SDS011;40936;53.008;6.556;2022-09-13T15:19:50;1999.90;;;999.90;;
55035;SDS011;40936;53.008;6.556;2022-09-13T15:22:31;1999.90;;;999.90;;
55035;SDS011;40936;53.008;6.556;2022-09-13T15:25:00;1999.90;;;999.90;;
55035;SDS011;40936;53.008;6.556;2022-09-13T15:29:56;1999.90;;;999.90;;
55035;SDS011;40936;53.008;6.556;2022-09-13T15:34:56;1999.90;;;999.90;;
55035;SDS011;40936;53.008;6.556;2022-09-13T15:37:28;1999.90;;;999.90;;
55035;SDS011;40936;53.008;6.556;2022-09-13T15:40:15;1999.90;;;999.90;;
55035;SDS011;40936;53.008;6.556;2022-09-13T15:42:44;1999.90;;;999.90;;
55035;SDS011;40936;53.008;6.556;2022-09-13T15:45:11;1999.90;;;999.90;;
55035;SDS011;40936;53.008;6.556;2022-09-13T15:47:37;1999.90;;;999.90;;
55035;SDS011;40936;53.008;6.556;2022-09-13T15:50:03;1999.90;;;999.90;;
55035;SDS011;40936;53.008;6.556;2022-09-13T15:52:30;1999.90;;;999.90;;
55035;SDS011;40936;53.008;6.556;2022-09-13T15:54:56;1999.90;;;999.90;;
55035;SDS011;40936;53.008;6.556;2022-09-13T15:57:23;1999.90;;;999.90;;
55035;SDS011;40936;53.008;6.556;2022-09-13T15:59:50;1999.90;;;999.90;;
55035;SDS011;40936;53.008;6.556;2022-09-13T16:04:45;1999.90;;;999.90;;
55035;SDS011;40936;53.008;6.556;2022-09-13T16:07:11;1999.90;;;999.90;;
55035;SDS011;40936;53.008;6.556;2022-09-13T16:09:37;1999.90;;;999.90;;
55035;SDS011;40936;53.008;6.556;2022-09-13T16:12:03;1999.90;;;999.90;;
55035;SDS011;40936;53.008;6.556;2022-09-13T16:14:29;1999.90;;;999.90;;
55035;SDS011;40936;53.008;6.556;2022-09-13T16:16:58;1999.90;;;999.90;;
55035;SDS011;40936;53.008;6.556;2022-09-13T16:19:28;1999.90;;;999.90;;
55035;SDS011;40936;53.008;6.556;2022-09-13T16:21:53;1999.90;;;999.90;;
55035;SDS011;40936;53.008;6.556;2022-09-13T16:24:19;1999.90;;;999.90;;
55035;SDS011;40936;53.008;6.556;2022-09-13T16:26:45;1999.90;;;999.90;;
55035;SDS011;40936;53.008;6.556;2022-09-13T16:29:10;1999.90;;;999.90;;
55035;SDS011;40936;53.008;6.556;2022-09-13T16:31:36;1999.90;;;999.90;;
55035;SDS011;40936;53.008;6.556;2022-09-13T16:34:02;1999.90;;;999.90;;
55035;SDS011;40936;53.008;6.556;2022-09-13T16:36:28;1999.90;;;999.90;;
55035;SDS011;40936;53.008;6.556;2022-09-13T16:38:55;1999.90;;;999.90;;
55035;SDS011;40936;53.008;6.556;2022-09-13T16:41:21;1999.90;;;999.90;;
55035;SDS011;40936;53.008;6.556;2022-09-13T16:43:47;1999.90;;;999.90;;
55035;SDS011;40936;53.008;6.556;2022-09-13T16:46:13;1999.90;;;999.90;;
55035;SDS011;40936;53.008;6.556;2022-09-13T16:48:39;1999.90;;;999.90;;
55035;SDS011;40936;53.008;6.556;2022-09-13T16:51:06;1999.90;;;999.90;;
55035;SDS011;40936;53.008;6.556;2022-09-13T16:53:34;1999.90;;;999.90;;
55035;SDS011;40936;53.008;6.556;2022-09-13T16:56:09;1999.90;;;999.90;;
55035;SDS011;40936;53.008;6.556;2022-09-13T16:58:36;1999.90;;;999.90;;
55035;SDS011;40936;53.008;6.556;2022-09-13T17:01:04;1999.90;;;999.90;;
55035;SDS011;40936;53.008;6.556;2022-09-13T17:03:34;1999.90;;;999.90;;
55035;SDS011;40936;53.008;6.556;2022-09-13T17:06:01;1999.90;;;999.90;;
55035;SDS011;40936;53.008;6.556;2022-09-13T17:08:28;1999.90;;;999.90;;
55035;SDS011;40936;53.008;6.556;2022-09-13T17:10:55;1999.90;;;999.90;;
55035;SDS011;40936;53.008;6.556;2022-09-13T17:13:21;1999.90;;;999.90;;
55035;SDS011;40936;53.008;6.556;2022-09-13T17:15:48;1999.90;;;999.90;;
55035;SDS011;40936;53.008;6.556;2022-09-13T17:18:14;1999.90;;;999.90;;
55035;SDS011;40936;53.008;6.556;2022-09-13T17:20:44;1999.90;;;999.90;;
55035;SDS011;40936;53.008;6.556;2022-09-13T17:23:10;1999.90;;;999.90;;
55035;SDS011;40936;53.008;6.556;2022-09-13T17:25:39;1999.90;;;999.90;;
55035;SDS011;40936;53.008;6.556;2022-09-13T17:28:07;1999.90;;;999.90;;
55035;SDS011;40936;53.008;6.556;2022-09-13T17:30:33;1999.90;;;999.90;;
55035;SDS011;40936;53.008;6.556;2022-09-13T17:32:58;1999.90;;;999.90;;
55035;SDS011;40936;53.008;6.556;2022-09-13T17:35:24;1999.90;;;999.90;;
55035;SDS011;40936;53.008;6.556;2022-09-13T17:37:50;1999.90;;;999.90;;
55035;SDS011;40936;53.008;6.556;2022-09-13T17:40:16;1999.90;;;999.90;;
55035;SDS011;40936;53.008;6.556;2022-09-13T17:42:42;1999.90;;;999.90;;
55035;SDS011;40936;53.008;6.556;2022-09-13T17:45:07;1999.90;;;999.90;;
55035;SDS011;40936;53.008;6.556;2022-09-13T17:47:33;1999.90;;;999.90;;
55035;SDS011;40936;53.008;6.556;2022-09-13T17:49:59;1999.90;;;999.90;;
55035;SDS011;40936;53.008;6.556;2022-09-13T17:52:26;1999.90;;;999.90;;